createdAt,value
2023-03-06T09:12:49.777Z,1.88
2023-03-06T09:15:18.814Z,2.45
2023-03-06T09:17:45.879Z,1.08
2023-03-06T09:20:13.022Z,3.08
2023-03-06T09:22:42.350Z,2.50
2023-03-06T09:25:11.061Z,2.67
2023-03-06T09:27:37.874Z,1.38
2023-03-06T09:30:05.379Z,0.50
2023-03-06T09:32:32.466Z,1.23
2023-03-06T09:35:00.646Z,2.33
2023-03-06T09:37:27.382Z,3.78
2023-03-06T09:39:54.052Z,1.52
2023-03-06T09:42:23.461Z,2.10
2023-03-06T09:45:00.975Z,13.25
2023-03-06T09:47:52.679Z,7.78
2023-03-06T09:50:38.385Z,2.72
2023-03-06T09:53:36.043Z,2.35
2023-03-06T09:56:10.668Z,3.25
2023-03-06T09:58:48.485Z,2.53
2023-03-06T10:01:16.260Z,2.47
2023-03-06T10:04:05.180Z,3.20
2023-03-06T10:06:45.361Z,1.48
2023-03-06T10:09:23.013Z,3.03
2023-03-06T10:12:00.633Z,3.15
2023-03-06T10:15:05.710Z,4.22
2023-03-06T10:17:38.243Z,1.58
2023-03-06T10:20:19.869Z,1.75
2023-03-06T10:23:20.783Z,1.75
2023-03-06T10:26:03.532Z,4.57
2023-03-06T10:28:58.249Z,2.70
2023-03-06T10:31:27.748Z,1.80
2023-03-06T10:34:10.892Z,3.90
2023-03-06T10:39:14.012Z,2.75
2023-03-06T10:41:40.782Z,1.35
2023-03-06T10:44:08.975Z,1.85
2023-03-06T10:46:40.193Z,2.08
2023-03-06T10:49:49.029Z,0.82
2023-03-06T10:52:15.723Z,1.70
2023-03-06T10:54:44.079Z,3.55
2023-03-06T10:57:31.122Z,2.83
2023-03-06T11:00:00.589Z,2.40
2023-03-06T11:02:27.412Z,2.00
2023-03-06T11:04:55.598Z,3.35
2023-03-06T11:07:26.001Z,3.47
2023-03-06T11:09:59.006Z,1.38
2023-03-06T11:12:34.554Z,2.28
2023-03-06T11:15:10.132Z,1.80
2023-03-06T11:17:48.241Z,3.63
2023-03-06T11:20:14.926Z,0.90
2023-03-06T11:22:47.579Z,3.97
2023-03-06T11:25:18.428Z,3.25
2023-03-06T11:27:50.597Z,2.72
2023-03-06T11:30:26.446Z,6.00
2023-03-06T11:33:01.835Z,4.20
2023-03-06T11:35:35.800Z,2.97
2023-03-06T11:38:30.785Z,2.80
2023-03-06T11:41:01.901Z,1.23
2023-03-06T11:43:49.697Z,1.30
2023-03-06T11:46:34.399Z,1.58
2023-03-06T11:49:18.831Z,0.85
2023-03-06T11:51:52.842Z,2.53
2023-03-06T11:54:19.620Z,3.13
2023-03-06T11:57:08.006Z,2.13
2023-03-06T11:59:37.677Z,2.22
2023-03-06T12:02:23.655Z,4.82
2023-03-06T12:05:14.594Z,1.05
2023-03-06T12:07:53.127Z,1.70
2023-03-06T12:10:41.137Z,2.70
2023-03-06T12:13:20.265Z,2.25
2023-03-06T12:16:05.625Z,5.18
2023-03-06T12:18:43.021Z,3.90
2023-03-06T12:21:35.819Z,4.93
2023-03-06T12:24:32.884Z,1.42
2023-03-06T12:27:08.973Z,3.50
2023-03-06T12:30:01.339Z,6.35
2023-03-06T12:32:47.586Z,3.83
2023-03-06T12:35:51.913Z,4.32
2023-03-06T12:38:48.347Z,3.20
2023-03-06T12:41:38.324Z,4.60
2023-03-06T12:44:39.992Z,4.88
2023-03-06T12:47:17.869Z,4.18
2023-03-06T12:49:59.952Z,4.93
2023-03-06T12:52:31.234Z,5.95
2023-03-06T12:55:01.061Z,3.63
2023-03-06T12:57:27.803Z,2.97
2023-03-06T12:59:54.918Z,5.05
2023-03-06T13:02:49.656Z,4.00
2023-03-06T13:05:31.203Z,6.30
2023-03-06T13:08:39.464Z,4.93
2023-03-06T13:11:44.413Z,4.00
2023-03-06T13:14:28.218Z,4.38
2023-03-06T13:17:15.342Z,4.22
2023-03-06T13:19:42.119Z,4.68
2023-03-06T13:22:27.741Z,4.65
2023-03-06T13:25:19.143Z,6.07
2023-03-06T13:27:53.908Z,6.07
2023-03-06T13:30:27.948Z,6.22
2023-03-06T13:32:56.164Z,7.07
2023-03-06T13:35:35.711Z,4.53
2023-03-06T13:38:02.578Z,5.32
2023-03-06T13:40:34.714Z,5.03
2023-03-06T13:43:07.484Z,6.45
2023-03-06T13:45:39.843Z,6.25
2023-03-06T13:48:30.210Z,7.95
2023-03-06T13:50:55.448Z,6.20
2023-03-06T13:53:40.654Z,3.97
2023-03-06T13:56:28.690Z,6.03
2023-03-06T13:59:26.532Z,6.65
2023-03-06T14:01:59.133Z,6.85
2023-03-06T14:04:53.369Z,6.22
2023-03-06T14:07:26.135Z,7.20
2023-03-06T14:09:55.939Z,7.13
2023-03-06T14:12:28.519Z,7.35
2023-03-06T14:15:01.377Z,8.35
2023-03-06T14:17:34.534Z,8.60
2023-03-06T14:20:13.427Z,9.82
2023-03-06T14:22:40.241Z,9.68
2023-03-06T14:25:31.212Z,9.68
2023-03-06T14:28:05.737Z,9.73
2023-03-06T14:30:52.161Z,9.18
2023-03-06T14:33:33.412Z,8.10
2023-03-06T14:36:03.204Z,8.77
2023-03-06T14:38:34.994Z,7.95
2023-03-06T14:41:03.259Z,9.65
2023-03-06T14:43:31.720Z,9.05
2023-03-06T14:46:04.928Z,9.73
2023-03-06T14:48:44.323Z,8.27
2023-03-06T14:51:19.120Z,8.80
2023-03-06T14:53:49.040Z,10.55
2023-03-06T14:56:22.043Z,9.73
2023-03-06T14:59:02.985Z,10.32
2023-03-06T15:01:41.435Z,11.85
2023-03-06T15:04:27.065Z,10.30
2023-03-06T15:06:56.246Z,11.57
2023-03-06T15:09:32.631Z,10.63
2023-03-06T15:12:07.007Z,9.35
2023-03-06T15:14:36.952Z,10.35
2023-03-06T15:17:19.072Z,10.70
2023-03-06T15:19:47.658Z,8.27
2023-03-06T15:22:39.733Z,9.60
2023-03-06T15:25:30.595Z,12.20
2023-03-06T15:27:59.634Z,11.73
2023-03-06T15:30:32.945Z,9.80
2023-03-06T15:33:29.279Z,11.95
2023-03-06T15:35:57.006Z,8.85
2023-03-06T15:38:31.236Z,11.57
2023-03-06T15:41:00.147Z,9.35
2023-03-06T15:43:38.162Z,13.07
2023-03-06T15:46:06.964Z,13.25
2023-03-06T15:48:35.248Z,10.98
2023-03-06T15:51:02.791Z,9.43
2023-03-06T15:53:29.627Z,10.85
2023-03-06T15:55:57.778Z,9.38
2023-03-06T15:58:27.032Z,9.13
2023-03-06T16:00:53.853Z,11.05
2023-03-06T16:03:20.629Z,11.90
2023-03-06T16:05:47.517Z,9.88
2023-03-06T16:08:14.911Z,10.65
2023-03-06T16:10:43.874Z,15.45
2023-03-06T16:13:14.994Z,12.35
2023-03-06T16:15:47.707Z,12.65
2023-03-06T16:18:14.478Z,13.05
2023-03-06T16:20:41.662Z,11.75
2023-03-06T16:23:10.579Z,11.65
2023-03-06T16:25:40.038Z,11.43
2023-03-06T16:28:12.169Z,10.68
2023-03-06T16:30:39.113Z,12.57
2023-03-06T16:33:06.061Z,12.38
2023-03-06T16:35:32.863Z,11.75
2023-03-06T16:38:00.108Z,10.38
2023-03-06T16:40:40.904Z,10.98
2023-03-06T16:43:09.016Z,14.55
2023-03-06T16:45:38.654Z,11.18
2023-03-06T16:48:06.921Z,13.02
2023-03-06T16:50:37.845Z,13.95
2023-03-06T16:53:05.167Z,11.50
2023-03-06T16:55:31.944Z,13.43
2023-03-06T16:57:58.694Z,11.95
2023-03-06T17:00:27.444Z,12.40
2023-03-06T17:02:55.531Z,11.27
2023-03-06T17:05:22.444Z,11.85
2023-03-06T17:07:50.420Z,13.93
2023-03-06T17:10:19.641Z,13.27
2023-03-06T17:12:46.453Z,14.15
2023-03-06T17:15:13.309Z,12.68
2023-03-06T17:17:40.035Z,13.15
2023-03-06T17:20:11.935Z,12.68
2023-03-06T17:22:38.836Z,13.25
2023-03-06T17:25:07.089Z,13.23
2023-03-06T17:27:35.332Z,12.82
2023-03-06T17:30:02.513Z,13.65
2023-03-06T17:32:29.278Z,12.57
2023-03-06T17:34:56.031Z,16.17
2023-03-06T17:37:22.855Z,14.30
2023-03-06T17:39:49.743Z,13.05
2023-03-06T17:42:16.828Z,14.60
2023-03-06T17:44:43.595Z,13.95
2023-03-06T17:47:10.746Z,13.02
2023-03-06T17:49:37.558Z,14.57
2023-03-06T17:52:05.723Z,16.55
2023-03-06T17:54:33.237Z,15.60
2023-03-06T17:57:03.450Z,18.73
2023-03-06T17:59:31.146Z,19.00
2023-03-06T18:01:59.553Z,21.08
2023-03-06T18:04:26.951Z,19.63
2023-03-06T18:06:53.825Z,20.20
2023-03-06T18:09:20.696Z,21.90
2023-03-06T18:11:47.532Z,23.95
2023-03-06T18:14:14.280Z,23.27
2023-03-06T18:16:41.402Z,21.38
2023-03-06T18:19:11.140Z,20.20
